Time;durP1;ratioP1;P1;durP2;ratioP2;P2;SDS_P1;SDS_P2;PMS_P1;PMS_P2;Temp;Humidity;BMP_temperature;BMP_pressure;BME280_temperature;BME280_humidity;BME280_pressure;Samples;Min_cycle;Max_cycle;Signal;HPM_P1;HPM_P2
2021/09/28 00:00:49;;;;;;;5.18;4.70;;;;;;;19.15;76.33;101125.22;5031867;28;20029;-41
2021/09/28 00:03:14;;;;;;;5.60;5.00;;;;;;;19.15;76.42;101123.44;5041605;28;20025;-41
2021/09/28 00:05:39;;;;;;;5.63;5.13;;;;;;;19.16;76.47;101132.31;5036031;28;20486;-41
2021/09/28 00:08:05;;;;;;;6.00;5.47;;;;;;;19.15;76.49;101141.25;5033041;28;20045;-41
2021/09/28 00:10:31;;;;;;;7.05;5.25;;;;;;;19.15;76.56;101150.16;5035551;28;20021;-41
2021/09/28 00:12:57;;;;;;;6.00;5.32;;;;;;;19.14;76.62;101150.22;5035275;28;20021;-41
2021/09/28 00:15:22;;;;;;;6.03;5.50;;;;;;;19.14;76.43;101142.19;5036340;28;20087;-41
2021/09/28 00:17:48;;;;;;;5.72;5.22;;;;;;;19.14;76.54;101156.41;5038941;28;20501;-41
2021/09/28 00:20:13;;;;;;;6.18;5.57;;;;;;;19.13;76.49;101154.69;5033069;28;20091;-42
2021/09/28 00:22:39;;;;;;;5.82;5.32;;;;;;;19.13;76.56;101154.69;5031411;28;20030;-41
2021/09/28 00:25:06;;;;;;;5.65;5.15;;;;;;;19.13;76.39;101154.69;5035599;28;20052;-41
2021/09/28 00:27:32;;;;;;;5.60;5.10;;;;;;;19.13;76.57;101149.34;5033737;28;20040;-41
2021/09/28 00:29:58;;;;;;;7.50;5.10;;;;;;;19.10;76.43;101155.69;5034075;28;20387;-41
2021/09/28 00:32:24;;;;;;;5.68;5.10;;;;;;;19.10;76.46;101187.75;5031604;28;20470;-41
2021/09/28 00:34:49;;;;;;;5.78;5.28;;;;;;;19.11;76.22;101215.38;5033534;28;20082;-41
2021/09/28 00:37:15;;;;;;;5.32;4.93;;;;;;;19.08;76.34;101221.69;5035596;28;20033;-41
2021/09/28 00:39:40;;;;;;;5.85;5.03;;;;;;;19.07;76.13;101225.28;5032528;28;20033;-41
2021/09/28 00:42:05;;;;;;;5.30;4.85;;;;;;;19.07;75.77;101230.63;5031884;28;20029;-41
2021/09/28 00:44:36;;;;;;;5.60;5.10;;;;;;;19.07;75.76;101238.66;5031366;28;20025;-41
2021/09/28 00:47:03;;;;;;;4.97;4.47;;;;;;;19.06;75.92;101231.56;5031333;28;20035;-41
2021/09/28 00:49:28;;;;;;;5.10;4.68;;;;;;;19.06;75.55;101241.34;5037097;28;20053;-41
2021/09/28 00:51:53;;;;;;;4.43;4.03;;;;;;;19.05;75.85;101247.63;5034695;28;20060;-41
2021/09/28 00:54:19;;;;;;;5.00;4.50;;;;;;;19.04;75.59;101245.88;5030832;28;20537;-41
2021/09/28 00:56:44;;;;;;;4.93;4.50;;;;;;;19.04;76.15;101249.41;5032216;28;20033;-41
2021/09/28 00:59:10;;;;;;;4.78;4.20;;;;;;;19.02;75.93;101245.94;5035152;28;20064;-41
2021/09/28 01:01:36;;;;;;;4.57;4.18;;;;;;;19.02;75.71;101248.63;5035956;28;20048;-41
2021/09/28 01:04:01;;;;;;;3.88;3.47;;;;;;;19.01;75.56;101241.53;5030403;28;20553;-41
2021/09/28 01:06:27;;;;;;;4.07;3.67;;;;;;;18.99;75.54;101235.34;5031451;28;20040;-42
2021/09/28 01:12:14;;;;;;;3.63;3.30;;;;;;;18.99;75.05;101248.72;5029946;28;20063;-41
2021/09/28 01:14:42;;;;;;;3.35;3.05;;;;;;;18.98;75.06;101246.97;5039494;28;20483;-41
2021/09/28 01:17:16;;;;;;;4.07;3.25;;;;;;;18.97;75.36;101245.22;5032355;28;20032;-42
2021/09/28 01:19:42;;;;;;;3.70;3.33;;;;;;;18.95;75.45;101252.44;5029393;28;20036;-41
2021/09/28 01:22:07;;;;;;;3.30;2.95;;;;;;;18.94;75.34;101248.88;5036894;28;20029;-41
2021/09/28 01:24:33;;;;;;;3.20;3.00;;;;;;;18.94;74.72;101250.69;5034972;28;20033;-41
2021/09/28 01:26:58;;;;;;;3.33;2.78;;;;;;;18.93;75.13;101249.81;5033832;28;20044;-41
2021/09/28 01:29:23;;;;;;;3.25;2.95;;;;;;;18.94;75.70;101240.00;5028923;28;20026;-41
2021/09/28 01:31:49;;;;;;;3.17;2.90;;;;;;;18.94;75.23;101251.53;5032793;28;20030;-41
2021/09/28 01:34:16;;;;;;;3.58;3.22;;;;;;;18.94;75.31;101256.03;5033115;28;20037;-41
2021/09/28 01:36:42;;;;;;;3.35;2.85;;;;;;;18.93;75.41;101264.97;5034400;28;20096;-41
2021/09/28 01:39:08;;;;;;;3.40;3.03;;;;;;;18.92;75.40;101265.91;5034404;28;20174;-41
2021/09/28 01:41:33;;;;;;;2.70;2.20;;;;;;;18.91;75.26;101261.47;5033509;28;20632;-41
2021/09/28 01:44:09;;;;;;;2.42;2.22;;;;;;;18.91;75.16;101267.69;5033314;28;20990;-41
2021/09/28 01:46:36;;;;;;;2.47;2.28;;;;;;;18.92;75.26;101273.91;5030681;28;20568;-41
2021/09/28 01:49:02;;;;;;;3.55;2.47;;;;;;;18.91;75.39;101277.50;5036341;28;20032;-41
2021/09/28 01:51:28;;;;;;;2.75;2.55;;;;;;;18.90;75.18;101267.75;5032461;28;20049;-41
2021/09/28 01:53:53;;;;;;;2.90;2.60;;;;;;;18.91;75.19;101274.84;5031927;28;20120;-41
2021/09/28 01:56:19;;;;;;;2.85;2.47;;;;;;;18.90;75.21;101265.94;5032297;28;20033;-41
2021/09/28 01:58:45;;;;;;;2.95;2.70;;;;;;;18.90;75.50;101273.97;5035610;28;20079;-41
2021/09/28 02:01:10;;;;;;;2.78;2.58;;;;;;;18.90;75.13;101273.97;5030503;28;20022;-41
2021/09/28 02:03:35;;;;;;;2.33;2.13;;;;;;;18.90;75.45;101281.13;5031137;28;20372;-41
2021/09/28 02:06:01;;;;;;;1.92;1.77;;;;;;;18.88;75.09;101273.16;5039187;28;20039;-41
2021/09/28 02:08:26;;;;;;;2.50;2.30;;;;;;;18.89;75.36;101284.69;5030177;28;20025;-41
2021/09/28 02:10:51;;;;;;;2.55;2.30;;;;;;;18.87;75.50;101276.72;5031470;28;20074;-41
2021/09/28 02:13:17;;;;;;;2.50;2.08;;;;;;;18.89;75.54;101274.00;5034359;28;20435;-41
2021/09/28 02:15:42;;;;;;;2.22;2.03;;;;;;;18.87;75.61;101275.88;5035735;28;20494;-41
2021/09/28 02:18:07;;;;;;;2.53;2.30;;;;;;;18.87;75.71;101282.06;5034426;28;20021;-41
2021/09/28 02:20:33;;;;;;;1.90;1.80;;;;;;;18.87;75.62;101286.56;5029402;28;20099;-41
2021/09/28 02:22:58;;;;;;;2.40;2.20;;;;;;;18.85;75.39;101278.59;5033761;28;20036;-42
2021/09/28 02:25:23;;;;;;;2.90;2.50;;;;;;;18.85;75.67;101284.81;5036522;28;20033;-41
2021/09/28 02:27:49;;;;;;;4.13;2.78;;;;;;;18.85;75.73;101279.44;5036890;28;20032;-41
2021/09/28 02:30:15;;;;;;;3.17;2.20;;;;;;;18.85;75.79;101279.44;5038824;28;20032;-41
2021/09/28 02:32:40;;;;;;;2.95;2.40;;;;;;;18.84;75.56;101282.22;5031069;28;20032;-41
2021/09/28 02:35:05;;;;;;;2.45;2.10;;;;;;;18.83;75.61;101278.66;5036679;28;20052;-41
2021/09/28 02:37:31;;;;;;;2.03;1.90;;;;;;;18.84;75.58;101299.09;5033438;28;20031;-41
2021/09/28 02:39:57;;;;;;;2.63;2.30;;;;;;;18.84;75.72;101292.91;5031285;28;20115;-41
2021/09/28 02:42:22;;;;;;;2.13;1.77;;;;;;;18.82;75.95;101290.28;5036664;28;20031;-41
2021/09/28 02:44:48;;;;;;;1.92;1.70;;;;;;;18.82;75.74;101300.97;5031216;28;20083;-41
2021/09/28 02:47:14;;;;;;;1.73;1.63;;;;;;;18.83;75.54;101302.69;5033664;28;20029;-41
2021/09/28 02:49:39;;;;;;;2.85;2.13;;;;;;;18.82;75.81;101302.75;5031816;28;20024;-42
2021/09/28 02:52:05;;;;;;;2.10;1.75;;;;;;;18.81;75.86;101312.56;5036370;28;20391;-42
2021/09/28 02:54:30;;;;;;;2.13;1.92;;;;;;;18.80;75.57;101313.50;5026531;28;20425;-42
2021/09/28 02:56:56;;;;;;;2.03;1.90;;;;;;;18.80;75.61;101329.53;5030658;28;20116;-42
2021/09/28 02:59:21;;;;;;;2.50;1.70;;;;;;;18.80;75.82;101332.19;5034299;28;20029;-42
2021/09/28 03:01:46;;;;;;;2.00;1.90;;;;;;;18.80;75.76;101329.53;5030288;28;20068;-42
2021/09/28 03:04:11;;;;;;;1.65;1.55;;;;;;;18.79;76.21;101316.22;5035692;28;20069;-42
2021/09/28 03:06:37;;;;;;;2.30;1.80;;;;;;;18.77;75.48;101312.72;5033473;28;20022;-41
2021/09/28 03:09:02;;;;;;;2.25;1.73;;;;;;;18.77;75.88;101305.56;5029028;28;20117;-42
2021/09/28 03:11:27;;;;;;;2.33;1.75;;;;;;;18.76;75.75;101300.28;5027297;28;20525;-42
2021/09/28 03:13:54;;;;;;;1.63;1.52;;;;;;;18.77;75.58;101302.91;5032744;28;20471;-42
2021/09/28 03:16:20;;;;;;;1.88;1.63;;;;;;;18.77;75.85;101304.72;5034756;28;20037;-40
2021/09/28 03:18:45;;;;;;;1.73;1.63;;;;;;;18.76;75.96;101317.19;5030317;28;20029;-40
2021/09/28 03:21:10;;;;;;;3.20;2.00;;;;;;;18.75;75.78;101326.13;5030862;28;20031;-40
2021/09/28 03:23:36;;;;;;;3.70;1.80;;;;;;;18.76;75.93;101327.00;5029937;28;20115;-41
2021/09/28 03:26:01;;;;;;;2.35;2.15;;;;;;;18.74;75.90;101318.16;5035247;28;20113;-41
2021/09/28 03:28:26;;;;;;;1.83;1.73;;;;;;;18.74;76.04;101320.84;5036158;28;20127;-41
2021/09/28 03:30:52;;;;;;;1.88;1.63;;;;;;;18.73;75.78;101349.34;5032106;28;20039;-40
2021/09/28 03:33:17;;;;;;;1.60;1.50;;;;;;;18.74;75.90;101360.91;5031892;28;20483;-40
2021/09/28 03:35:42;;;;;;;1.73;1.63;;;;;;;18.73;76.02;101365.38;5029290;28;20502;-42
2021/09/28 03:38:08;;;;;;;2.58;1.80;;;;;;;18.73;75.81;101354.69;5028009;28;20025;-43
2021/09/28 03:40:33;;;;;;;2.10;1.60;;;;;;;18.72;75.89;101359.19;5031152;28;20415;-43
2021/09/28 03:42:58;;;;;;;1.60;1.50;;;;;;;18.72;75.78;101360.97;5037108;28;20036;-43
2021/09/28 03:45:24;;;;;;;1.65;1.55;;;;;;;18.71;76.01;101359.22;5027888;28;20483;-41
2021/09/28 03:47:49;;;;;;;1.73;1.63;;;;;;;18.70;75.89;101365.47;5029780;28;20026;-43
2021/09/28 03:50:14;;;;;;;2.33;2.10;;;;;;;18.71;76.02;101361.91;5031589;28;20029;-43
2021/09/28 03:52:40;;;;;;;2.03;1.70;;;;;;;18.69;76.04;101369.06;5034348;28;20032;-42
2021/09/28 03:55:05;;;;;;;2.35;1.45;;;;;;;18.69;76.07;101363.72;5029584;28;20100;-42
2021/09/28 03:57:31;;;;;;;2.03;1.42;;;;;;;18.68;76.06;101372.69;5034981;28;20151;-41
2021/09/28 03:59:56;;;;;;;2.58;1.70;;;;;;;18.67;76.10;101366.44;5032940;28;20506;-42
2021/09/28 04:02:22;;;;;;;2.42;1.67;;;;;;;18.67;76.12;101365.59;5030106;28;20060;-42
2021/09/28 04:04:47;;;;;;;1.92;1.83;;;;;;;18.67;75.99;101373.63;5033820;28;20491;-42
2021/09/28 04:07:13;;;;;;;2.22;1.85;;;;;;;18.67;76.12;101381.63;5033842;28;20021;-42
2021/09/28 04:09:38;;;;;;;3.13;1.98;;;;;;;18.66;75.98;101372.72;5030737;28;20458;-43
2021/09/28 04:12:04;;;;;;;2.15;1.55;;;;;;;18.67;75.98;101381.63;5035535;28;20029;-43
2021/09/28 04:14:30;;;;;;;2.10;2.00;;;;;;;18.66;75.83;101385.19;5029291;28;20025;-42
2021/09/28 04:16:55;;;;;;;2.72;1.77;;;;;;;18.65;75.96;101384.34;5033516;28;20038;-42
2021/09/28 04:19:21;;;;;;;2.03;1.90;;;;;;;18.65;75.82;101389.69;5034131;28;20055;-42
2021/09/28 04:21:46;;;;;;;1.60;1.50;;;;;;;18.64;75.90;101387.06;5036047;28;20025;-42
2021/09/28 04:24:12;;;;;;;2.10;1.63;;;;;;;18.64;75.92;101387.06;5036970;28;20398;-42
2021/09/28 04:26:38;;;;;;;2.80;2.53;;;;;;;18.63;75.68;101386.19;5028428;28;20476;-42
2021/09/28 04:29:03;;;;;;;1.65;1.55;;;;;;;18.62;75.85;101378.22;5031505;28;20107;-42
2021/09/28 04:31:28;;;;;;;3.42;1.98;;;;;;;18.62;75.84;101379.09;5030787;28;20117;-42
2021/09/28 04:33:54;;;;;;;1.98;1.85;;;;;;;18.61;75.86;101381.81;5032253;28;20033;-42
2021/09/28 04:36:19;;;;;;;1.88;1.67;;;;;;;18.62;75.80;101386.22;5027540;28;20028;-42
2021/09/28 04:38:44;;;;;;;1.67;1.58;;;;;;;18.60;76.04;101386.25;5029792;28;20117;-42
2021/09/28 04:41:10;;;;;;;2.00;1.73;;;;;;;18.59;75.77;101388.09;5038702;28;20037;-42
2021/09/28 04:43:35;;;;;;;1.98;1.88;;;;;;;18.59;75.98;101387.19;5039159;28;20112;-43
2021/09/28 04:46:00;;;;;;;1.85;1.70;;;;;;;18.58;75.64;101391.66;5031475;28;20497;-42
2021/09/28 04:48:26;;;;;;;1.52;1.35;;;;;;;18.59;75.80;101400.56;5034021;28;20021;-42
2021/09/28 04:50:52;;;;;;;1.92;1.77;;;;;;;18.58;75.87;101393.47;5041761;28;20025;-42
2021/09/28 04:53:20;;;;;;;3.05;1.85;;;;;;;18.57;76.06;101394.38;5036612;28;20045;-43
2021/09/28 04:55:46;;;;;;;3.03;2.05;;;;;;;18.57;75.92;101395.25;5036892;28;20030;-42
2021/09/28 04:58:11;;;;;;;2.42;1.98;;;;;;;18.56;75.80;101406.88;5037711;28;20036;-43
2021/09/28 05:00:36;;;;;;;2.22;2.03;;;;;;;18.56;75.80;101416.66;5035814;28;20436;-43
2021/09/28 05:03:01;;;;;;;2.78;2.20;;;;;;;18.55;75.97;101421.16;5040002;28;20036;-43
2021/09/28 05:05:27;;;;;;;3.08;1.80;;;;;;;18.54;75.86;101414.03;5035358;28;20108;-42
2021/09/28 05:07:52;;;;;;;1.88;1.65;;;;;;;18.54;75.86;101413.19;5032957;28;20072;-42
2021/09/28 05:10:17;;;;;;;1.98;1.77;;;;;;;18.54;75.82;101419.38;5037456;28;20706;-42
2021/09/28 05:12:43;;;;;;;2.35;1.70;;;;;;;18.53;75.91;101428.34;5038088;28;20033;-43
2021/09/28 05:15:08;;;;;;;2.08;1.50;;;;;;;18.53;76.02;101428.34;5033558;28;20033;-43
2021/09/28 05:17:35;;;;;;;2.63;1.42;;;;;;;18.52;75.90;101434.59;5035004;28;20021;-42
2021/09/28 05:20:01;;;;;;;2.78;1.88;;;;;;;18.52;76.01;101426.59;5031223;28;20031;-43
2021/09/28 05:22:27;;;;;;;2.08;1.88;;;;;;;18.51;75.78;101424.81;5030529;28;20021;-42
2021/09/28 05:24:52;;;;;;;2.00;1.50;;;;;;;18.52;75.82;101428.38;5034570;28;20036;-43
2021/09/28 05:27:17;;;;;;;2.08;1.65;;;;;;;18.50;76.02;101433.75;5035393;28;20495;-42
2021/09/28 05:29:42;;;;;;;1.83;1.52;;;;;;;18.50;75.68;101436.44;5035209;28;20025;-43
2021/09/28 05:32:08;;;;;;;1.85;1.75;;;;;;;18.49;75.71;101431.13;5032248;28;20025;-42
2021/09/28 05:34:34;;;;;;;2.28;2.00;;;;;;;18.49;75.71;101445.38;5034938;28;20180;-42
2021/09/28 05:36:59;;;;;;;2.30;1.70;;;;;;;18.48;75.76;101446.31;5034382;28;20108;-43
2021/09/28 05:39:25;;;;;;;2.95;2.10;;;;;;;18.49;76.00;101452.50;5035527;28;20378;-42
2021/09/28 05:41:50;;;;;;;1.77;1.67;;;;;;;18.46;76.10;101453.47;5039790;28;20488;-42
2021/09/28 05:44:15;;;;;;;2.92;1.80;;;;;;;18.46;75.67;101456.16;5030709;28;20021;-42
2021/09/28 05:46:40;;;;;;;1.98;1.50;;;;;;;18.47;75.72;101463.22;5030808;28;20025;-42
2021/09/28 05:49:06;;;;;;;2.05;1.85;;;;;;;18.44;75.71;101461.53;5035148;28;20021;-42
2021/09/28 05:51:34;;;;;;;2.90;1.92;;;;;;;18.44;75.74;101471.34;5030744;28;20048;-43
2021/09/28 05:54:01;;;;;;;3.00;2.03;;;;;;;18.43;75.76;101470.47;5033228;28;20049;-43
2021/09/28 05:56:27;;;;;;;1.73;1.63;;;;;;;18.44;75.72;101474.03;5035972;28;20021;-43
2021/09/28 05:58:52;;;;;;;3.10;2.38;;;;;;;18.44;75.69;101482.03;5029902;28;20360;-43
2021/09/28 06:01:18;;;;;;;2.20;2.00;;;;;;;18.42;75.72;101478.53;5030885;28;20022;-42
2021/09/28 06:03:43;;;;;;;2.50;2.30;;;;;;;18.42;75.67;101475.84;5035139;28;20057;-42
2021/09/28 06:06:08;;;;;;;2.35;2.15;;;;;;;18.42;75.69;101478.53;5035850;28;20048;-42
2021/09/28 06:08:34;;;;;;;2.10;1.90;;;;;;;18.42;75.68;101483.88;5028731;28;20018;-42
2021/09/28 06:10:59;;;;;;;2.25;1.83;;;;;;;18.40;75.63;101483.91;5031010;28;20059;-42
2021/09/28 06:13:25;;;;;;;2.10;2.00;;;;;;;18.40;75.62;101491.91;5030962;28;20603;-42
2021/09/28 06:15:50;;;;;;;2.20;2.00;;;;;;;18.40;75.73;101496.38;5032749;28;20438;-43
2021/09/28 06:18:15;;;;;;;2.28;2.08;;;;;;;18.40;75.88;101497.25;5032461;28;20034;-42
2021/09/28 06:20:41;;;;;;;3.25;2.20;;;;;;;18.38;75.81;101498.22;5031916;28;20412;-43
2021/09/28 06:23:06;;;;;;;2.50;2.30;;;;;;;18.38;75.84;101508.91;5029500;28;20029;-43
2021/09/28 06:25:31;;;;;;;3.25;2.28;;;;;;;18.37;75.89;101509.84;5033908;28;20036;-43
2021/09/28 06:27:57;;;;;;;4.00;2.03;;;;;;;18.37;75.65;101504.50;5034756;28;20117;-43
2021/09/28 06:30:22;;;;;;;2.40;2.20;;;;;;;18.37;75.76;101510.69;5032723;28;20032;-43
2021/09/28 06:32:47;;;;;;;2.97;2.65;;;;;;;18.36;75.65;101516.97;5030152;28;20013;-42
2021/09/28 06:35:13;;;;;;;2.67;2.10;;;;;;;18.35;75.43;101512.53;5028597;28;20124;-42
2021/09/28 06:37:38;;;;;;;2.42;2.22;;;;;;;18.36;75.66;101516.06;5029955;28;20383;-42
2021/09/28 06:40:04;;;;;;;2.88;2.15;;;;;;;18.34;75.84;101522.34;5032922;28;20497;-43
2021/09/28 06:42:29;;;;;;;2.70;2.33;;;;;;;18.33;75.74;101520.59;5033746;28;20025;-43
2021/09/28 06:44:54;;;;;;;2.83;2.63;;;;;;;18.33;75.67;101531.28;5032001;28;20043;-43
2021/09/28 06:47:20;;;;;;;2.88;2.67;;;;;;;18.32;75.65;101524.19;5031442;28;20033;-43
2021/09/28 06:49:45;;;;;;;2.67;2.47;;;;;;;18.32;75.53;101529.53;5032784;28;20032;-43
2021/09/28 06:52:11;;;;;;;2.83;2.53;;;;;;;18.32;75.72;101540.22;5032832;28;20027;-43
2021/09/28 06:54:37;;;;;;;2.78;2.58;;;;;;;18.29;75.67;101534.97;5034025;28;20041;-42
2021/09/28 06:57:02;;;;;;;3.08;2.88;;;;;;;18.31;75.52;101540.25;5029069;28;20087;-42
2021/09/28 06:59:27;;;;;;;2.55;2.35;;;;;;;18.30;75.61;101527.81;5027701;28;20029;-43
2021/09/28 07:01:52;;;;;;;4.47;3.22;;;;;;;18.29;75.65;101537.63;5035467;28;20040;-42
2021/09/28 07:04:18;;;;;;;3.05;2.75;;;;;;;18.28;75.51;101540.34;5033812;28;20037;-43
2021/09/28 07:06:43;;;;;;;4.68;2.97;;;;;;;18.25;75.29;101529.75;5028438;28;20045;-43
2021/09/28 07:09:08;;;;;;;3.75;2.97;;;;;;;18.26;75.46;101537.72;5030975;28;20701;-42
2021/09/28 07:11:34;;;;;;;3.17;2.88;;;;;;;18.26;75.12;101543.03;5031048;28;20024;-42
2021/09/28 07:13:59;;;;;;;3.88;2.75;;;;;;;18.25;75.53;101543.97;5029679;28;20479;-43
2021/09/28 07:16:24;;;;;;;3.05;2.83;;;;;;;18.25;75.40;101545.75;5034104;28;20529;-42
2021/09/28 07:18:50;;;;;;;2.85;2.63;;;;;;;18.26;75.40;101552.84;5032865;28;20169;-42
2021/09/28 07:21:15;;;;;;;3.50;2.95;;;;;;;18.26;75.41;101552.84;5034439;28;20037;-42
2021/09/28 07:23:41;;;;;;;3.15;2.75;;;;;;;18.24;75.60;101547.53;5028579;28;20046;-43
2021/09/28 07:26:07;;;;;;;2.88;2.60;;;;;;;18.23;75.44;101548.47;5034108;28;20028;-42
2021/09/28 07:28:33;;;;;;;3.45;3.10;;;;;;;18.22;75.37;101552.06;5031890;28;20047;-43
2021/09/28 07:30:58;;;;;;;3.60;3.13;;;;;;;18.21;75.31;101561.00;5030348;28;20369;-42
2021/09/28 07:33:24;;;;;;;4.70;3.00;;;;;;;18.22;75.37;101562.75;5028015;28;20029;-42
2021/09/28 07:35:49;;;;;;;3.53;3.22;;;;;;;18.21;75.44;101561.00;5028807;28;20055;-43
2021/09/28 07:38:16;;;;;;;2.88;2.67;;;;;;;18.21;75.58;101558.34;5033602;28;20124;-42
2021/09/28 07:40:43;;;;;;;2.80;2.60;;;;;;;18.20;75.31;101559.22;5033215;28;20022;-42
2021/09/28 07:43:09;;;;;;;3.15;2.80;;;;;;;18.19;75.48;101557.47;5028923;28;20041;-42
2021/09/28 07:45:35;;;;;;;4.53;2.78;;;;;;;18.19;75.41;101562.81;5032487;28;20030;-43
2021/09/28 07:48:00;;;;;;;2.80;2.60;;;;;;;18.20;75.66;101564.56;5026310;28;20016;-43
2021/09/28 07:50:25;;;;;;;3.50;3.20;;;;;;;18.19;75.29;101568.16;5033436;28;20079;-42
2021/09/28 07:52:51;;;;;;;3.00;2.80;;;;;;;18.18;75.22;101567.28;5031233;28;20100;-43
2021/09/28 07:55:16;;;;;;;2.88;2.65;;;;;;;18.17;75.65;101554.00;5033406;28;20096;-42
2021/09/28 07:57:41;;;;;;;4.43;3.10;;;;;;;18.15;75.43;101561.16;5030223;28;20114;-43
2021/09/28 08:00:08;;;;;;;4.00;2.72;;;;;;;18.14;75.25;101570.94;5028101;28;20061;-43
2021/09/28 08:02:35;;;;;;;3.25;2.95;;;;;;;18.14;75.50;101570.94;5031427;28;20017;-42
2021/09/28 08:05:00;;;;;;;2.88;2.67;;;;;;;18.13;75.48;101568.31;5034120;28;20049;-42
2021/09/28 08:07:25;;;;;;;3.10;2.78;;;;;;;18.13;75.18;101570.97;5029966;28;20559;-42
2021/09/28 08:09:51;;;;;;;3.33;2.90;;;;;;;18.11;75.46;101570.16;5030084;28;20028;-42
2021/09/28 08:12:16;;;;;;;3.08;2.75;;;;;;;18.10;75.24;101582.63;5025918;28;20602;-43
2021/09/28 08:14:41;;;;;;;3.38;2.67;;;;;;;18.12;75.61;101579.91;5035883;28;20103;-43
2021/09/28 08:17:07;;;;;;;3.40;2.72;;;;;;;18.11;75.21;101583.50;5036734;28;20025;-42
2021/09/28 08:19:33;;;;;;;3.03;2.83;;;;;;;18.09;75.68;101586.22;5030360;28;20073;-43
2021/09/28 08:21:59;;;;;;;2.75;2.55;;;;;;;18.07;75.29;101582.66;5032762;28;20100;-42
2021/09/28 08:24:25;;;;;;;2.60;2.40;;;;;;;18.07;75.85;101596.91;5033329;28;20027;-42
2021/09/28 08:29:34;;;;;;;2.50;2.30;;;;;;;18.05;75.28;101588.06;5031514;28;20025;-42
2021/09/28 08:31:59;;;;;;;3.38;2.63;;;;;;;18.04;74.89;101572.94;5034462;28;20029;-42
2021/09/28 08:34:25;;;;;;;3.90;2.72;;;;;;;18.06;75.32;101576.47;5030066;28;20083;-42
2021/09/28 08:36:50;;;;;;;2.60;2.40;;;;;;;18.06;75.50;101586.25;5032666;28;20094;-42
2021/09/28 08:39:16;;;;;;;3.55;2.50;;;;;;;18.04;75.23;101586.28;5035229;28;20491;-42
2021/09/28 08:41:47;;;;;;;2.35;2.17;;;;;;;18.04;75.52;101591.63;5035077;28;20092;-42
2021/09/28 08:44:13;;;;;;;2.33;1.98;;;;;;;18.01;75.32;101589.03;5032403;28;20096;-42
2021/09/28 08:46:39;;;;;;;2.40;2.20;;;;;;;18.03;75.75;101589.88;5033312;28;20109;-42
2021/09/28 08:49:05;;;;;;;3.03;2.83;;;;;;;18.01;75.22;101591.72;5018837;28;20551;-42
2021/09/28 08:51:32;;;;;;;2.55;2.13;;;;;;;18.00;74.76;101591.78;5035416;28;20016;-42
2021/09/28 08:53:57;;;;;;;3.25;2.25;;;;;;;18.01;75.08;101585.50;5032318;28;20017;-42
2021/09/28 08:56:24;;;;;;;2.53;2.33;;;;;;;18.00;75.50;101589.97;5033436;28;20463;-42
2021/09/28 08:58:55;;;;;;;2.60;2.22;;;;;;;18.00;75.22;101584.63;5031396;28;20041;-41
2021/09/28 09:01:20;;;;;;;2.38;2.17;;;;;;;18.00;75.12;101589.97;5030996;28;20029;-42
2021/09/28 09:03:45;;;;;;;2.47;2.28;;;;;;;17.98;75.27;101597.16;5036254;28;20446;-42
2021/09/28 09:06:11;;;;;;;2.13;1.90;;;;;;;18.00;74.79;101599.78;5032122;28;20032;-43
2021/09/28 09:08:37;;;;;;;2.72;2.22;;;;;;;17.99;75.47;101596.22;5032195;28;20032;-42
2021/09/28 09:11:13;;;;;;;3.20;2.00;;;;;;;17.95;75.30;101590.06;5036145;28;20483;-41
2021/09/28 09:13:42;;;;;;;1.90;1.80;;;;;;;17.97;75.48;101591.84;5035452;28;20078;-42
2021/09/28 09:16:13;;;;;;;3.20;2.05;;;;;;;17.98;74.72;101597.16;5036051;28;20017;-43
2021/09/28 09:18:41;;;;;;;2.90;2.00;;;;;;;17.98;75.37;101591.81;5030422;28;20534;-42
2021/09/28 09:21:08;;;;;;;2.83;2.05;;;;;;;17.97;75.54;101592.69;5034995;28;20044;-42
2021/09/28 09:23:36;;;;;;;1.77;1.58;;;;;;;17.97;75.31;101594.50;5034809;28;20570;-42
2021/09/28 09:26:04;;;;;;;2.28;2.08;;;;;;;17.95;75.70;101591.88;5038059;28;20028;-42
2021/09/28 09:28:32;;;;;;;1.85;1.75;;;;;;;17.96;75.61;101593.63;5030506;28;20097;-42
2021/09/28 09:31:33;;;;;;;2.13;1.98;;;;;;;17.96;75.39;101593.63;5033277;28;20024;-42
2021/09/28 09:34:14;;;;;;;2.28;1.67;;;;;;;17.96;75.71;101598.97;5033923;28;20035;-42
2021/09/28 09:36:40;;;;;;;3.65;1.80;;;;;;;17.95;75.52;101605.22;5035252;28;20022;-42
2021/09/28 09:39:09;;;;;;;1.92;1.83;;;;;;;17.95;75.18;101597.22;5031194;28;20033;-42
2021/09/28 09:41:35;;;;;;;1.95;1.50;;;;;;;17.95;75.73;101602.56;5030105;28;20026;-42
2021/09/28 09:44:02;;;;;;;2.50;2.30;;;;;;;17.94;75.41;101595.47;5036771;28;20040;-42
2021/09/28 09:46:44;;;;;;;1.95;1.80;;;;;;;17.93;75.50;101594.59;5033365;28;20025;-42
2021/09/28 09:49:10;;;;;;;2.25;1.80;;;;;;;17.92;75.43;101597.28;5029481;28;20410;-42
2021/09/28 09:51:44;;;;;;;2.60;1.92;;;;;;;17.92;75.48;101602.63;5034642;28;20024;-42
2021/09/28 09:54:10;;;;;;;1.95;1.83;;;;;;;17.91;74.69;101600.88;5026721;28;20021;-43
2021/09/28 09:56:51;;;;;;;4.15;2.08;;;;;;;17.91;75.50;101601.75;5033857;28;20034;-43
2021/09/28 09:59:22;;;;;;;2.35;2.15;;;;;;;17.91;75.76;101604.41;5030247;28;20041;-42
2021/09/28 10:01:47;;;;;;;2.30;2.10;;;;;;;17.90;75.24;101604.44;5031929;28;20033;-42
2021/09/28 10:04:22;;;;;;;2.75;2.45;;;;;;;17.89;75.08;101597.38;5032832;28;20065;-42
2021/09/28 10:06:48;;;;;;;1.77;1.67;;;;;;;17.89;74.48;101595.59;5034424;28;20037;-42
2021/09/28 10:09:25;;;;;;;2.90;2.13;;;;;;;17.91;75.42;101603.56;5035193;28;20044;-42
2021/09/28 10:11:55;;;;;;;3.03;2.25;;;;;;;17.89;74.68;101594.69;5013117;28;20117;-43
2021/09/28 10:14:47;;;;;;;3.73;2.60;;;;;;;17.91;75.54;101595.56;5030897;28;20487;-42
2021/09/28 10:17:21;;;;;;;2.20;2.00;;;;;;;17.89;75.31;101594.69;5029355;28;20041;-42
2021/09/28 10:19:54;;;;;;;2.22;1.70;;;;;;;17.90;76.09;101599.09;5032526;28;20108;-42
2021/09/28 10:22:35;;;;;;;2.17;1.98;;;;;;;17.88;74.97;101601.84;5033889;28;20155;-42
2021/09/28 10:25:18;;;;;;;3.03;2.83;;;;;;;17.88;75.84;101595.63;5030392;28;20104;-42
2021/09/28 10:27:44;;;;;;;2.63;2.08;;;;;;;17.88;75.63;101591.16;5030301;28;20029;-42
2021/09/28 10:30:10;;;;;;;3.28;1.95;;;;;;;17.88;75.63;101590.28;5032486;28;20037;-42
2021/09/28 10:32:45;;;;;;;3.25;2.10;;;;;;;17.87;75.58;101594.72;5028890;28;20033;-43
2021/09/28 10:35:14;;;;;;;2.50;1.60;;;;;;;17.87;76.04;101594.72;5037120;28;20037;-42
2021/09/28 10:37:42;;;;;;;2.67;2.47;;;;;;;17.87;75.86;101589.41;5028245;28;20022;-42
2021/09/28 10:40:09;;;;;;;2.25;2.05;;;;;;;17.86;76.11;101590.31;5032987;28;20017;-42
2021/09/28 10:42:55;;;;;;;1.90;1.80;;;;;;;17.86;75.65;101590.31;5031864;28;20656;-42
2021/09/28 10:45:41;;;;;;;1.90;1.70;;;;;;;17.83;75.04;101591.28;5036186;28;20037;-42
2021/09/28 10:48:11;;;;;;;2.55;2.15;;;;;;;17.81;75.12;101585.09;5028166;28;20439;-42
2021/09/28 10:50:43;;;;;;;2.05;1.95;;;;;;;17.82;75.42;101589.53;5030253;28;20022;-42
2021/09/28 10:53:28;;;;;;;3.03;2.20;;;;;;;17.83;75.40;101580.59;5032046;28;20024;-43
2021/09/28 10:55:57;;;;;;;2.22;1.98;;;;;;;17.83;76.41;101585.94;5037823;28;20375;-43
2021/09/28 10:58:23;;;;;;;1.75;1.65;;;;;;;17.83;75.14;101577.94;5028835;28;20407;-42
2021/09/28 11:00:49;;;;;;;2.63;2.22;;;;;;;17.83;74.80;101577.94;5029152;28;20053;-42
2021/09/28 11:03:18;;;;;;;2.60;2.40;;;;;;;17.84;75.27;101568.13;5028677;28;20102;-42
2021/09/28 11:05:56;;;;;;;2.30;2.10;;;;;;;17.85;75.38;101577.00;5010561;28;20040;-42
2021/09/28 11:08:22;;;;;;;2.40;2.28;;;;;;;17.85;76.08;101579.69;5032082;28;20017;-42
2021/09/28 11:10:58;;;;;;;2.55;1.83;;;;;;;17.84;75.33;101584.13;5028293;28;20043;-42
2021/09/28 11:13:31;;;;;;;2.20;2.00;;;;;;;17.82;75.04;101581.53;5027400;28;20045;-42
2021/09/28 11:16:01;;;;;;;2.22;1.90;;;;;;;17.82;74.91;101583.31;5029227;28;20030;-42
2021/09/28 11:18:26;;;;;;;2.13;1.92;;;;;;;17.84;75.21;101584.13;5031246;28;20025;-42
2021/09/28 11:20:52;;;;;;;2.00;1.90;;;;;;;17.85;76.03;101582.34;5034715;28;20117;-42
2021/09/28 11:23:17;;;;;;;2.17;1.88;;;;;;;17.83;75.26;101569.94;5030166;28;20404;-42
2021/09/28 11:25:52;;;;;;;2.08;1.98;;;;;;;17.83;75.32;101577.03;5030747;28;20033;-43
2021/09/28 11:28:19;;;;;;;2.45;2.25;;;;;;;17.83;75.81;101572.59;5032547;28;20030;-42